sensor_id;sensor_type;location;lat;lon;timestamp;P1;durP1;ratioP1;P2;durP2;ratioP2
3843;SDS011;1937;51.444;6.484;2024-02-26T00:02:25;3.93;;;2.33;;
3843;SDS011;1937;51.444;6.484;2024-02-26T00:04:51;2.60;;;2.40;;
3843;SDS011;1937;51.444;6.484;2024-02-26T00:07:18;5.30;;;2.60;;
3843;SDS011;1937;51.444;6.484;2024-02-26T00:09:44;4.73;;;2.70;;
3843;SDS011;1937;51.444;6.484;2024-02-26T00:12:11;2.50;;;2.00;;
3843;SDS011;1937;51.444;6.484;2024-02-26T00:14:38;3.00;;;2.20;;
3843;SDS011;1937;51.444;6.484;2024-02-26T00:17:06;2.53;;;2.23;;
3843;SDS011;1937;51.444;6.484;2024-02-26T00:19:32;6.40;;;2.10;;
3843;SDS011;1937;51.444;6.484;2024-02-26T00:22:01;3.83;;;2.30;;
3843;SDS011;1937;51.444;6.484;2024-02-26T00:24:27;4.37;;;3.03;;
3843;SDS011;1937;51.444;6.484;2024-02-26T00:26:54;2.70;;;2.50;;
3843;SDS011;1937;51.444;6.484;2024-02-26T00:29:21;3.10;;;2.80;;
3843;SDS011;1937;51.444;6.484;2024-02-26T00:31:48;3.03;;;2.30;;
3843;SDS011;1937;51.444;6.484;2024-02-26T00:34:16;3.77;;;2.40;;
3843;SDS011;1937;51.444;6.484;2024-02-26T00:36:43;6.87;;;3.20;;
3843;SDS011;1937;51.444;6.484;2024-02-26T00:39:10;4.43;;;3.50;;
3843;SDS011;1937;51.444;6.484;2024-02-26T00:41:38;3.90;;;3.50;;
3843;SDS011;1937;51.444;6.484;2024-02-26T00:44:05;4.87;;;3.10;;
3843;SDS011;1937;51.444;6.484;2024-02-26T00:46:31;5.93;;;3.50;;
3843;SDS011;1937;51.444;6.484;2024-02-26T00:48:58;6.73;;;3.77;;
3843;SDS011;1937;51.444;6.484;2024-02-26T00:51:26;6.53;;;4.10;;
3843;SDS011;1937;51.444;6.484;2024-02-26T00:53:53;9.97;;;3.80;;
3843;SDS011;1937;51.444;6.484;2024-02-26T00:56:21;6.70;;;4.07;;
3843;SDS011;1937;51.444;6.484;2024-02-26T00:58:47;7.57;;;4.30;;
3843;SDS011;1937;51.444;6.484;2024-02-26T01:01:14;5.33;;;3.10;;
3843;SDS011;1937;51.444;6.484;2024-02-26T01:03:40;3.03;;;2.53;;
3843;SDS011;1937;51.444;6.484;2024-02-26T01:06:07;5.60;;;2.70;;
3843;SDS011;1937;51.444;6.484;2024-02-26T01:08:36;3.27;;;2.50;;
3843;SDS011;1937;51.444;6.484;2024-02-26T01:11:02;5.40;;;2.70;;
3843;SDS011;1937;51.444;6.484;2024-02-26T01:13:29;4.97;;;2.90;;
3843;SDS011;1937;51.444;6.484;2024-02-26T01:15:56;2.80;;;2.40;;
3843;SDS011;1937;51.444;6.484;2024-02-26T01:18:22;4.97;;;2.37;;
3843;SDS011;1937;51.444;6.484;2024-02-26T01:20:50;3.60;;;2.50;;
3843;SDS011;1937;51.444;6.484;2024-02-26T01:23:18;3.70;;;2.93;;
3843;SDS011;1937;51.444;6.484;2024-02-26T01:25:46;3.87;;;2.63;;
3843;SDS011;1937;51.444;6.484;2024-02-26T01:28:13;5.90;;;3.00;;
3843;SDS011;1937;51.444;6.484;2024-02-26T01:30:40;4.83;;;2.60;;
3843;SDS011;1937;51.444;6.484;2024-02-26T01:33:06;5.33;;;2.73;;
3843;SDS011;1937;51.444;6.484;2024-02-26T01:35:33;3.53;;;2.70;;
3843;SDS011;1937;51.444;6.484;2024-02-26T01:38:00;2.87;;;2.37;;
3843;SDS011;1937;51.444;6.484;2024-02-26T01:40:26;4.07;;;2.50;;
3843;SDS011;1937;51.444;6.484;2024-02-26T01:42:54;3.67;;;2.90;;
3843;SDS011;1937;51.444;6.484;2024-02-26T01:45:21;8.10;;;2.97;;
3843;SDS011;1937;51.444;6.484;2024-02-26T01:47:49;5.57;;;3.23;;
3843;SDS011;1937;51.444;6.484;2024-02-26T01:50:17;5.00;;;2.40;;
3843;SDS011;1937;51.444;6.484;2024-02-26T01:52:44;3.30;;;2.90;;
3843;SDS011;1937;51.444;6.484;2024-02-26T01:55:12;3.67;;;3.00;;
3843;SDS011;1937;51.444;6.484;2024-02-26T01:57:40;3.10;;;2.83;;
3843;SDS011;1937;51.444;6.484;2024-02-26T02:00:10;4.83;;;3.20;;
3843;SDS011;1937;51.444;6.484;2024-02-26T02:02:38;4.17;;;2.67;;
3843;SDS011;1937;51.444;6.484;2024-02-26T02:05:07;3.03;;;2.73;;
3843;SDS011;1937;51.444;6.484;2024-02-26T02:07:36;2.60;;;2.40;;
3843;SDS011;1937;51.444;6.484;2024-02-26T02:10:02;2.70;;;2.10;;
3843;SDS011;1937;51.444;6.484;2024-02-26T02:12:32;3.90;;;2.73;;
3843;SDS011;1937;51.444;6.484;2024-02-26T02:14:59;4.10;;;3.50;;
3843;SDS011;1937;51.444;6.484;2024-02-26T02:17:28;2.50;;;2.30;;
3843;SDS011;1937;51.444;6.484;2024-02-26T02:19:54;2.57;;;2.30;;
3843;SDS011;1937;51.444;6.484;2024-02-26T02:22:22;4.17;;;2.10;;
3843;SDS011;1937;51.444;6.484;2024-02-26T02:24:50;2.73;;;2.03;;
3843;SDS011;1937;51.444;6.484;2024-02-26T02:27:18;2.90;;;2.47;;
3843;SDS011;1937;51.444;6.484;2024-02-26T02:29:46;3.60;;;2.53;;
3843;SDS011;1937;51.444;6.484;2024-02-26T02:32:13;3.37;;;2.40;;
3843;SDS011;1937;51.444;6.484;2024-02-26T02:34:40;2.80;;;2.30;;
3843;SDS011;1937;51.444;6.484;2024-02-26T02:37:07;3.23;;;2.03;;
3843;SDS011;1937;51.444;6.484;2024-02-26T02:39:35;3.03;;;2.83;;
3843;SDS011;1937;51.444;6.484;2024-02-26T02:42:02;4.00;;;2.60;;
3843;SDS011;1937;51.444;6.484;2024-02-26T02:44:29;5.37;;;4.63;;
3843;SDS011;1937;51.444;6.484;2024-02-26T02:46:56;4.90;;;3.23;;
3843;SDS011;1937;51.444;6.484;2024-02-26T02:49:23;13.93;;;5.10;;
3843;SDS011;1937;51.444;6.484;2024-02-26T02:51:49;6.00;;;3.70;;
3843;SDS011;1937;51.444;6.484;2024-02-26T02:54:18;7.83;;;3.53;;
3843;SDS011;1937;51.444;6.484;2024-02-26T02:56:46;6.80;;;3.90;;
3843;SDS011;1937;51.444;6.484;2024-02-26T02:59:13;7.60;;;4.20;;
3843;SDS011;1937;51.444;6.484;2024-02-26T03:01:39;10.10;;;4.80;;
3843;SDS011;1937;51.444;6.484;2024-02-26T03:04:06;5.27;;;3.80;;
3843;SDS011;1937;51.444;6.484;2024-02-26T03:06:33;8.17;;;4.80;;
3843;SDS011;1937;51.444;6.484;2024-02-26T03:08:59;7.90;;;4.60;;
3843;SDS011;1937;51.444;6.484;2024-02-26T03:11:27;7.90;;;4.33;;
3843;SDS011;1937;51.444;6.484;2024-02-26T03:13:55;9.37;;;4.50;;
3843;SDS011;1937;51.444;6.484;2024-02-26T03:16:22;10.07;;;4.80;;
3843;SDS011;1937;51.444;6.484;2024-02-26T03:18:49;6.00;;;3.93;;
3843;SDS011;1937;51.444;6.484;2024-02-26T03:21:15;6.43;;;3.40;;
3843;SDS011;1937;51.444;6.484;2024-02-26T03:23:42;8.63;;;4.27;;
3843;SDS011;1937;51.444;6.484;2024-02-26T03:26:08;6.00;;;3.87;;
3843;SDS011;1937;51.444;6.484;2024-02-26T03:28:38;4.33;;;3.33;;
3843;SDS011;1937;51.444;6.484;2024-02-26T03:31:06;9.23;;;3.80;;
3843;SDS011;1937;51.444;6.484;2024-02-26T03:33:33;8.40;;;4.30;;
3843;SDS011;1937;51.444;6.484;2024-02-26T03:36:00;6.03;;;3.83;;
3843;SDS011;1937;51.444;6.484;2024-02-26T03:38:28;9.70;;;4.57;;
3843;SDS011;1937;51.444;6.484;2024-02-26T03:40:55;4.87;;;4.43;;
3843;SDS011;1937;51.444;6.484;2024-02-26T03:43:21;11.93;;;3.90;;
3843;SDS011;1937;51.444;6.484;2024-02-26T03:45:48;7.17;;;4.47;;
3843;SDS011;1937;51.444;6.484;2024-02-26T03:48:16;5.83;;;4.00;;
3843;SDS011;1937;51.444;6.484;2024-02-26T03:50:43;6.30;;;3.60;;
3843;SDS011;1937;51.444;6.484;2024-02-26T03:53:10;5.90;;;3.83;;
3843;SDS011;1937;51.444;6.484;2024-02-26T03:55:37;3.53;;;3.13;;
3843;SDS011;1937;51.444;6.484;2024-02-26T03:58:06;6.13;;;3.20;;
3843;SDS011;1937;51.444;6.484;2024-02-26T04:00:33;5.33;;;3.87;;
3843;SDS011;1937;51.444;6.484;2024-02-26T04:02:59;3.23;;;2.97;;
3843;SDS011;1937;51.444;6.484;2024-02-26T04:05:27;4.77;;;3.33;;
3843;SDS011;1937;51.444;6.484;2024-02-26T04:07:54;4.63;;;3.20;;
3843;SDS011;1937;51.444;6.484;2024-02-26T04:10:21;4.00;;;3.50;;
3843;SDS011;1937;51.444;6.484;2024-02-26T04:12:47;3.90;;;3.50;;
3843;SDS011;1937;51.444;6.484;2024-02-26T04:15:14;5.97;;;3.90;;
3843;SDS011;1937;51.444;6.484;2024-02-26T04:17:40;3.97;;;3.53;;
3843;SDS011;1937;51.444;6.484;2024-02-26T04:20:07;3.93;;;3.50;;
3843;SDS011;1937;51.444;6.484;2024-02-26T04:22:41;4.00;;;3.53;;
3843;SDS011;1937;51.444;6.484;2024-02-26T04:25:08;7.40;;;3.60;;
3843;SDS011;1937;51.444;6.484;2024-02-26T04:27:34;3.67;;;3.27;;
3843;SDS011;1937;51.444;6.484;2024-02-26T04:30:01;4.77;;;3.67;;
3843;SDS011;1937;51.444;6.484;2024-02-26T04:32:29;4.80;;;3.67;;
3843;SDS011;1937;51.444;6.484;2024-02-26T04:34:55;5.23;;;3.20;;
3843;SDS011;1937;51.444;6.484;2024-02-26T04:37:22;3.80;;;3.23;;
3843;SDS011;1937;51.444;6.484;2024-02-26T04:39:50;3.80;;;3.40;;
3843;SDS011;1937;51.444;6.484;2024-02-26T04:42:17;6.50;;;3.50;;
3843;SDS011;1937;51.444;6.484;2024-02-26T04:44:43;3.70;;;3.40;;
3843;SDS011;1937;51.444;6.484;2024-02-26T04:47:10;3.27;;;2.97;;
3843;SDS011;1937;51.444;6.484;2024-02-26T04:49:36;5.40;;;3.70;;
3843;SDS011;1937;51.444;6.484;2024-02-26T04:52:03;3.63;;;3.33;;
3843;SDS011;1937;51.444;6.484;2024-02-26T04:54:31;7.33;;;4.17;;
3843;SDS011;1937;51.444;6.484;2024-02-26T04:56:59;4.77;;;3.50;;
3843;SDS011;1937;51.444;6.484;2024-02-26T04:59:25;5.50;;;3.87;;
3843;SDS011;1937;51.444;6.484;2024-02-26T05:01:52;3.40;;;3.10;;
3843;SDS011;1937;51.444;6.484;2024-02-26T05:04:18;4.80;;;3.23;;
3843;SDS011;1937;51.444;6.484;2024-02-26T05:06:45;4.30;;;3.90;;
3843;SDS011;1937;51.444;6.484;2024-02-26T05:09:12;3.80;;;3.50;;
3843;SDS011;1937;51.444;6.484;2024-02-26T05:11:38;4.60;;;4.07;;
3843;SDS011;1937;51.444;6.484;2024-02-26T05:14:07;3.70;;;3.30;;
3843;SDS011;1937;51.444;6.484;2024-02-26T05:16:34;5.07;;;3.87;;
3843;SDS011;1937;51.444;6.484;2024-02-26T05:19:01;5.47;;;3.63;;
3843;SDS011;1937;51.444;6.484;2024-02-26T05:21:28;5.43;;;4.30;;
3843;SDS011;1937;51.444;6.484;2024-02-26T05:23:54;4.83;;;3.80;;
3843;SDS011;1937;51.444;6.484;2024-02-26T05:26:21;5.30;;;3.80;;
3843;SDS011;1937;51.444;6.484;2024-02-26T05:28:48;3.70;;;3.23;;
3843;SDS011;1937;51.444;6.484;2024-02-26T05:31:17;4.30;;;3.90;;
3843;SDS011;1937;51.444;6.484;2024-02-26T05:33:44;4.50;;;3.97;;
3843;SDS011;1937;51.444;6.484;2024-02-26T05:36:17;5.10;;;3.80;;
3843;SDS011;1937;51.444;6.484;2024-02-26T05:38:44;4.20;;;3.80;;
3843;SDS011;1937;51.444;6.484;2024-02-26T05:41:11;3.80;;;3.07;;
3843;SDS011;1937;51.444;6.484;2024-02-26T05:43:38;7.00;;;3.87;;
3843;SDS011;1937;51.444;6.484;2024-02-26T05:46:04;5.10;;;4.13;;
3843;SDS011;1937;51.444;6.484;2024-02-26T05:48:32;4.97;;;3.80;;
3843;SDS011;1937;51.444;6.484;2024-02-26T05:50:59;5.13;;;4.60;;
3843;SDS011;1937;51.444;6.484;2024-02-26T05:53:26;4.10;;;3.23;;
3843;SDS011;1937;51.444;6.484;2024-02-26T05:55:52;5.83;;;3.67;;
3843;SDS011;1937;51.444;6.484;2024-02-26T05:58:19;3.57;;;3.27;;
3843;SDS011;1937;51.444;6.484;2024-02-26T06:00:46;5.50;;;4.17;;
3843;SDS011;1937;51.444;6.484;2024-02-26T06:03:12;4.37;;;3.50;;
3843;SDS011;1937;51.444;6.484;2024-02-26T06:05:40;8.67;;;4.03;;
3843;SDS011;1937;51.444;6.484;2024-02-26T06:08:07;4.10;;;3.60;;
3843;SDS011;1937;51.444;6.484;2024-02-26T06:10:33;7.33;;;3.90;;
3843;SDS011;1937;51.444;6.484;2024-02-26T06:13:00;5.23;;;3.97;;
3843;SDS011;1937;51.444;6.484;2024-02-26T06:15:27;4.33;;;3.63;;
3843;SDS011;1937;51.444;6.484;2024-02-26T06:17:53;4.90;;;4.30;;
3843;SDS011;1937;51.444;6.484;2024-02-26T06:20:20;5.27;;;3.83;;
3843;SDS011;1937;51.444;6.484;2024-02-26T06:22:48;4.20;;;3.80;;
3843;SDS011;1937;51.444;6.484;2024-02-26T06:25:15;4.40;;;3.90;;
3843;SDS011;1937;51.444;6.484;2024-02-26T06:27:41;4.80;;;4.07;;
3843;SDS011;1937;51.444;6.484;2024-02-26T06:30:08;6.30;;;3.60;;
3843;SDS011;1937;51.444;6.484;2024-02-26T06:32:36;5.13;;;3.50;;
3843;SDS011;1937;51.444;6.484;2024-02-26T06:35:03;4.30;;;3.27;;
3843;SDS011;1937;51.444;6.484;2024-02-26T06:37:31;3.90;;;3.60;;
3843;SDS011;1937;51.444;6.484;2024-02-26T06:40:00;5.23;;;3.63;;
3843;SDS011;1937;51.444;6.484;2024-02-26T06:42:28;5.27;;;3.90;;
3843;SDS011;1937;51.444;6.484;2024-02-26T06:44:55;7.00;;;4.17;;
3843;SDS011;1937;51.444;6.484;2024-02-26T06:47:22;5.40;;;3.90;;
3843;SDS011;1937;51.444;6.484;2024-02-26T06:49:48;6.73;;;4.23;;
3843;SDS011;1937;51.444;6.484;2024-02-26T06:52:15;7.67;;;4.47;;
3843;SDS011;1937;51.444;6.484;2024-02-26T06:54:42;4.47;;;3.90;;
3843;SDS011;1937;51.444;6.484;2024-02-26T06:57:11;4.97;;;3.50;;
3843;SDS011;1937;51.444;6.484;2024-02-26T06:59:37;6.57;;;3.87;;
3843;SDS011;1937;51.444;6.484;2024-02-26T07:02:05;9.07;;;3.93;;
3843;SDS011;1937;51.444;6.484;2024-02-26T07:04:32;5.10;;;4.53;;
3843;SDS011;1937;51.444;6.484;2024-02-26T07:06:59;4.03;;;3.50;;
3843;SDS011;1937;51.444;6.484;2024-02-26T07:09:25;5.83;;;4.27;;
3843;SDS011;1937;51.444;6.484;2024-02-26T07:11:52;4.17;;;3.73;;
3843;SDS011;1937;51.444;6.484;2024-02-26T07:14:20;6.10;;;4.10;;
3843;SDS011;1937;51.444;6.484;2024-02-26T07:16:46;5.63;;;4.80;;
3843;SDS011;1937;51.444;6.484;2024-02-26T07:19:13;6.30;;;3.90;;
3843;SDS011;1937;51.444;6.484;2024-02-26T07:21:39;7.23;;;4.17;;
3843;SDS011;1937;51.444;6.484;2024-02-26T07:24:06;4.50;;;4.10;;
3843;SDS011;1937;51.444;6.484;2024-02-26T07:26:33;6.13;;;4.17;;
3843;SDS011;1937;51.444;6.484;2024-02-26T07:28:59;5.10;;;4.27;;
3843;SDS011;1937;51.444;6.484;2024-02-26T07:31:27;6.23;;;3.70;;
3843;SDS011;1937;51.444;6.484;2024-02-26T07:33:54;5.57;;;4.00;;
3843;SDS011;1937;51.444;6.484;2024-02-26T07:36:21;7.07;;;4.70;;
3843;SDS011;1937;51.444;6.484;2024-02-26T07:38:47;8.10;;;4.30;;
3843;SDS011;1937;51.444;6.484;2024-02-26T07:41:14;4.80;;;4.27;;
3843;SDS011;1937;51.444;6.484;2024-02-26T07:43:41;6.00;;;3.90;;
3843;SDS011;1937;51.444;6.484;2024-02-26T07:46:07;6.20;;;4.50;;
3843;SDS011;1937;51.444;6.484;2024-02-26T07:48:38;5.37;;;4.20;;
3843;SDS011;1937;51.444;6.484;2024-02-26T07:51:06;6.00;;;3.60;;
3843;SDS011;1937;51.444;6.484;2024-02-26T07:53:32;4.53;;;4.13;;
3843;SDS011;1937;51.444;6.484;2024-02-26T07:55:59;4.10;;;3.70;;
3843;SDS011;1937;51.444;6.484;2024-02-26T07:58:26;6.67;;;4.40;;
3843;SDS011;1937;51.444;6.484;2024-02-26T08:00:52;3.83;;;3.43;;
3843;SDS011;1937;51.444;6.484;2024-02-26T08:03:19;4.97;;;3.63;;
3843;SDS011;1937;51.444;6.484;2024-02-26T08:05:47;4.17;;;3.37;;
3843;SDS011;1937;51.444;6.484;2024-02-26T08:08:13;5.53;;;3.67;;
3843;SDS011;1937;51.444;6.484;2024-02-26T08:10:40;4.53;;;3.47;;
3843;SDS011;1937;51.444;6.484;2024-02-26T08:13:06;4.67;;;3.20;;
3843;SDS011;1937;51.444;6.484;2024-02-26T08:15:33;3.70;;;3.40;;
3843;SDS011;1937;51.444;6.484;2024-02-26T08:18:02;5.07;;;3.33;;
3843;SDS011;1937;51.444;6.484;2024-02-26T08:20:29;6.67;;;3.50;;
3843;SDS011;1937;51.444;6.484;2024-02-26T08:22:57;4.10;;;3.63;;
3843;SDS011;1937;51.444;6.484;2024-02-26T08:25:24;5.40;;;3.63;;
3843;SDS011;1937;51.444;6.484;2024-02-26T08:27:50;4.53;;;3.70;;
3843;SDS011;1937;51.444;6.484;2024-02-26T08:30:17;3.50;;;3.20;;
3843;SDS011;1937;51.444;6.484;2024-02-26T08:32:47;6.70;;;3.60;;
3843;SDS011;1937;51.444;6.484;2024-02-26T08:35:14;4.63;;;3.47;;
3843;SDS011;1937;51.444;6.484;2024-02-26T08:37:43;8.70;;;3.90;;
3843;SDS011;1937;51.444;6.484;2024-02-26T08:40:12;3.40;;;3.10;;
3843;SDS011;1937;51.444;6.484;2024-02-26T08:42:39;4.77;;;3.40;;
3843;SDS011;1937;51.444;6.484;2024-02-26T08:45:06;4.17;;;3.40;;
3843;SDS011;1937;51.444;6.484;2024-02-26T08:47:33;3.40;;;3.10;;
3843;SDS011;1937;51.444;6.484;2024-02-26T08:50:00;4.80;;;3.40;;
3843;SDS011;1937;51.444;6.484;2024-02-26T08:52:27;4.40;;;3.50;;
3843;SDS011;1937;51.444;6.484;2024-02-26T08:54:53;3.90;;;3.53;;
3843;SDS011;1937;51.444;6.484;2024-02-26T08:57:23;6.63;;;4.13;;
3843;SDS011;1937;51.444;6.484;2024-02-26T08:59:57;4.90;;;3.43;;
3843;SDS011;1937;51.444;6.484;2024-02-26T09:02:25;4.60;;;3.80;;
3843;SDS011;1937;51.444;6.484;2024-02-26T09:04:51;5.17;;;4.40;;
3843;SDS011;1937;51.444;6.484;2024-02-26T09:07:20;5.20;;;3.83;;
3843;SDS011;1937;51.444;6.484;2024-02-26T09:09:46;7.50;;;3.40;;
3843;SDS011;1937;51.444;6.484;2024-02-26T09:12:13;7.20;;;3.53;;
3843;SDS011;1937;51.444;6.484;2024-02-26T09:14:41;4.40;;;3.70;;
3843;SDS011;1937;51.444;6.484;2024-02-26T09:17:07;7.87;;;5.43;;
3843;SDS011;1937;51.444;6.484;2024-02-26T09:19:34;6.07;;;4.00;;
3843;SDS011;1937;51.444;6.484;2024-02-26T09:22:01;4.60;;;4.00;;
3843;SDS011;1937;51.444;6.484;2024-02-26T09:24:27;5.07;;;3.50;;
3843;SDS011;1937;51.444;6.484;2024-02-26T09:26:54;6.90;;;4.10;;
3843;SDS011;1937;51.444;6.484;2024-02-26T09:29:21;8.83;;;3.80;;
3843;SDS011;1937;51.444;6.484;2024-02-26T09:31:49;5.10;;;4.00;;
3843;SDS011;1937;51.444;6.484;2024-02-26T09:34:15;4.53;;;3.50;;
3843;SDS011;1937;51.444;6.484;2024-02-26T09:36:42;3.97;;;3.57;;
3843;SDS011;1937;51.444;6.484;2024-02-26T09:39:09;5.93;;;3.70;;
3843;SDS011;1937;51.444;6.484;2024-02-26T09:41:36;4.97;;;3.73;;
3843;SDS011;1937;51.444;6.484;2024-02-26T09:44:04;5.93;;;4.33;;
3843;SDS011;1937;51.444;6.484;2024-02-26T09:46:31;3.77;;;3.40;;
3843;SDS011;1937;51.444;6.484;2024-02-26T09:48:59;5.63;;;3.13;;
3843;SDS011;1937;51.444;6.484;2024-02-26T09:51:26;4.77;;;3.57;;
3843;SDS011;1937;51.444;6.484;2024-02-26T09:53:53;5.80;;;3.60;;
3843;SDS011;1937;51.444;6.484;2024-02-26T09:56:22;5.00;;;3.90;;
3843;SDS011;1937;51.444;6.484;2024-02-26T09:58:49;4.40;;;4.00;;
3843;SDS011;1937;51.444;6.484;2024-02-26T10:01:19;7.00;;;4.23;;
3843;SDS011;1937;51.444;6.484;2024-02-26T10:03:52;5.27;;;4.03;;
3843;SDS011;1937;51.444;6.484;2024-02-26T10:06:22;4.47;;;3.73;;
3843;SDS011;1937;51.444;6.484;2024-02-26T10:08:50;6.10;;;4.30;;
3843;SDS011;1937;51.444;6.484;2024-02-26T10:11:18;5.07;;;3.90;;
3843;SDS011;1937;51.444;6.484;2024-02-26T10:13:45;7.27;;;4.30;;
3843;SDS011;1937;51.444;6.484;2024-02-26T10:16:12;5.27;;;3.73;;
3843;SDS011;1937;51.444;6.484;2024-02-26T10:18:48;10.70;;;5.10;;
3843;SDS011;1937;51.444;6.484;2024-02-26T10:21:18;6.50;;;4.80;;
3843;SDS011;1937;51.444;6.484;2024-02-26T10:23:47;4.67;;;4.27;;
3843;SDS011;1937;51.444;6.484;2024-02-26T10:26:14;5.57;;;4.70;;
3843;SDS011;1937;51.444;6.484;2024-02-26T10:28:41;5.80;;;4.20;;
3843;SDS011;1937;51.444;6.484;2024-02-26T10:31:09;5.20;;;3.77;;
3843;SDS011;1937;51.444;6.484;2024-02-26T10:33:37;6.47;;;3.80;;
3843;SDS011;1937;51.444;6.484;2024-02-26T10:36:04;8.80;;;4.50;;
3843;SDS011;1937;51.444;6.484;2024-02-26T10:38:32;7.53;;;4.20;;
3843;SDS011;1937;51.444;6.484;2024-02-26T10:41:02;4.90;;;4.23;;
3843;SDS011;1937;51.444;6.484;2024-02-26T10:43:29;4.50;;;4.10;;
3843;SDS011;1937;51.444;6.484;2024-02-26T10:45:56;4.63;;;3.90;;
3843;SDS011;1937;51.444;6.484;2024-02-26T10:48:22;6.40;;;4.10;;
3843;SDS011;1937;51.444;6.484;2024-02-26T10:50:49;5.20;;;3.77;;
3843;SDS011;1937;51.444;6.484;2024-02-26T10:53:19;8.80;;;4.50;;
3843;SDS011;1937;51.444;6.484;2024-02-26T10:55:48;6.70;;;4.30;;
3843;SDS011;1937;51.444;6.484;2024-02-26T10:58:17;7.43;;;4.77;;
3843;SDS011;1937;51.444;6.484;2024-02-26T11:00:45;4.70;;;3.77;;
3843;SDS011;1937;51.444;6.484;2024-02-26T11:03:13;4.17;;;3.40;;
3843;SDS011;1937;51.444;6.484;2024-02-26T11:05:42;5.40;;;3.80;;
3843;SDS011;1937;51.444;6.484;2024-02-26T11:08:10;4.80;;;3.80;;
3843;SDS011;1937;51.444;6.484;2024-02-26T11:10:37;5.13;;;4.43;;
3843;SDS011;1937;51.444;6.484;2024-02-26T11:13:06;5.10;;;4.00;;
3843;SDS011;1937;51.444;6.484;2024-02-26T11:15:40;5.00;;;4.03;;
3843;SDS011;1937;51.444;6.484;2024-02-26T11:18:07;6.77;;;4.83;;
3843;SDS011;1937;51.444;6.484;2024-02-26T11:20:35;5.40;;;3.93;;
3843;SDS011;1937;51.444;6.484;2024-02-26T11:23:05;7.70;;;4.37;;
3843;SDS011;1937;51.444;6.484;2024-02-26T11:25:33;6.23;;;4.53;;
3843;SDS011;1937;51.444;6.484;2024-02-26T11:28:01;4.93;;;4.17;;
3843;SDS011;1937;51.444;6.484;2024-02-26T11:30:32;5.50;;;3.87;;
3843;SDS011;1937;51.444;6.484;2024-02-26T11:33:05;5.43;;;4.20;;
3843;SDS011;1937;51.444;6.484;2024-02-26T11:35:34;5.90;;;4.90;;
3843;SDS011;1937;51.444;6.484;2024-02-26T11:38:03;6.67;;;4.97;;
3843;SDS011;1937;51.444;6.484;2024-02-26T11:40:31;6.07;;;4.20;;
3843;SDS011;1937;51.444;6.484;2024-02-26T11:42:58;6.80;;;5.00;;
3843;SDS011;1937;51.444;6.484;2024-02-26T11:48:16;7.67;;;4.20;;
3843;SDS011;1937;51.444;6.484;2024-02-26T11:50:46;6.77;;;5.00;;
3843;SDS011;1937;51.444;6.484;2024-02-26T11:53:20;7.27;;;5.37;;
3843;SDS011;1937;51.444;6.484;2024-02-26T11:55:48;8.00;;;5.87;;
3843;SDS011;1937;51.444;6.484;2024-02-26T11:58:35;10.07;;;6.00;;
3843;SDS011;1937;51.444;6.484;2024-02-26T12:01:02;10.53;;;5.63;;
3843;SDS011;1937;51.444;6.484;2024-02-26T12:03:31;8.33;;;6.20;;
3843;SDS011;1937;51.444;6.484;2024-02-26T12:05:57;9.63;;;6.20;;
3843;SDS011;1937;51.444;6.484;2024-02-26T12:08:24;10.53;;;6.57;;
3843;SDS011;1937;51.444;6.484;2024-02-26T12:10:50;13.10;;;7.73;;
3843;SDS011;1937;51.444;6.484;2024-02-26T12:13:21;8.87;;;7.00;;
3843;SDS011;1937;51.444;6.484;2024-02-26T12:15:56;8.30;;;5.80;;
3843;SDS011;1937;51.444;6.484;2024-02-26T12:18:24;10.93;;;6.33;;
3843;SDS011;1937;51.444;6.484;2024-02-26T12:20:59;9.40;;;7.10;;
3843;SDS011;1937;51.444;6.484;2024-02-26T12:23:26;16.03;;;7.80;;
3843;SDS011;1937;51.444;6.484;2024-02-26T12:25:53;13.20;;;7.13;;
3843;SDS011;1937;51.444;6.484;2024-02-26T12:28:20;15.43;;;8.10;;
3843;SDS011;1937;51.444;6.484;2024-02-26T12:30:47;8.97;;;7.57;;
3843;SDS011;1937;51.444;6.484;2024-02-26T12:33:14;9.80;;;6.60;;
3843;SDS011;1937;51.444;6.484;2024-02-26T12:35:41;12.00;;;7.90;;
3843;SDS011;1937;51.444;6.484;2024-02-26T12:38:10;10.80;;;6.73;;
3843;SDS011;1937;51.444;6.484;2024-02-26T12:40:38;8.17;;;5.73;;
3843;SDS011;1937;51.444;6.484;2024-02-26T12:43:05;11.37;;;7.13;;
3843;SDS011;1937;51.444;6.484;2024-02-26T12:45:38;9.97;;;6.87;;
3843;SDS011;1937;51.444;6.484;2024-02-26T12:48:05;10.53;;;7.40;;
3843;SDS011;1937;51.444;6.484;2024-02-26T12:50:32;14.13;;;7.70;;
3843;SDS011;1937;51.444;6.484;2024-02-26T12:52:59;11.50;;;7.33;;
3843;SDS011;1937;51.444;6.484;2024-02-26T12:55:27;11.70;;;7.57;;
3843;SDS011;1937;51.444;6.484;2024-02-26T12:57:55;10.27;;;7.00;;
3843;SDS011;1937;51.444;6.484;2024-02-26T13:00:22;13.90;;;6.77;;
3843;SDS011;1937;51.444;6.484;2024-02-26T13:02:53;10.83;;;7.57;;
3843;SDS011;1937;51.444;6.484;2024-02-26T13:05:21;10.90;;;7.10;;
3843;SDS011;1937;51.444;6.484;2024-02-26T13:07:49;9.13;;;6.37;;
3843;SDS011;1937;51.444;6.484;2024-02-26T13:10:18;11.70;;;6.97;;
3843;SDS011;1937;51.444;6.484;2024-02-26T13:12:47;8.83;;;6.37;;
3843;SDS011;1937;51.444;6.484;2024-02-26T13:15:15;12.63;;;7.27;;
3843;SDS011;1937;51.444;6.484;2024-02-26T13:17:43;9.40;;;6.10;;
3843;SDS011;1937;51.444;6.484;2024-02-26T13:20:10;9.63;;;7.40;;
3843;SDS011;1937;51.444;6.484;2024-02-26T13:22:38;10.90;;;7.07;;
3843;SDS011;1937;51.444;6.484;2024-02-26T13:25:05;7.30;;;6.00;;
3843;SDS011;1937;51.444;6.484;2024-02-26T13:27:32;11.13;;;7.83;;
3843;SDS011;1937;51.444;6.484;2024-02-26T13:30:08;9.73;;;7.20;;
3843;SDS011;1937;51.444;6.484;2024-02-26T13:32:37;9.63;;;6.73;;
3843;SDS011;1937;51.444;6.484;2024-02-26T13:35:05;10.07;;;7.30;;
3843;SDS011;1937;51.444;6.484;2024-02-26T13:37:32;9.73;;;6.20;;
3843;SDS011;1937;51.444;6.484;2024-02-26T13:39:59;8.07;;;5.60;;
3843;SDS011;1937;51.444;6.484;2024-02-26T13:42:29;7.77;;;5.93;;
3843;SDS011;1937;51.444;6.484;2024-02-26T13:44:56;10.97;;;5.80;;
3843;SDS011;1937;51.444;6.484;2024-02-26T13:47:24;6.90;;;5.33;;
3843;SDS011;1937;51.444;6.484;2024-02-26T13:49:50;12.20;;;5.50;;
3843;SDS011;1937;51.444;6.484;2024-02-26T13:52:17;10.90;;;6.13;;
3843;SDS011;1937;51.444;6.484;2024-02-26T13:54:45;7.80;;;5.83;;
3843;SDS011;1937;51.444;6.484;2024-02-26T13:57:11;6.87;;;5.53;;
3843;SDS011;1937;51.444;6.484;2024-02-26T13:59:38;5.53;;;5.00;;
3843;SDS011;1937;51.444;6.484;2024-02-26T14:02:07;7.07;;;4.87;;
3843;SDS011;1937;51.444;6.484;2024-02-26T14:04:35;6.07;;;5.20;;
3843;SDS011;1937;51.444;6.484;2024-02-26T14:07:02;5.87;;;4.20;;
3843;SDS011;1937;51.444;6.484;2024-02-26T14:09:30;6.47;;;5.03;;
3843;SDS011;1937;51.444;6.484;2024-02-26T14:11:57;8.10;;;4.70;;
3843;SDS011;1937;51.444;6.484;2024-02-26T14:14:23;6.00;;;5.40;;
3843;SDS011;1937;51.444;6.484;2024-02-26T14:16:51;4.90;;;4.13;;
3843;SDS011;1937;51.444;6.484;2024-02-26T14:19:17;6.90;;;5.07;;
3843;SDS011;1937;51.444;6.484;2024-02-26T14:21:45;5.70;;;4.50;;
3843;SDS011;1937;51.444;6.484;2024-02-26T14:24:12;6.77;;;4.50;;
3843;SDS011;1937;51.444;6.484;2024-02-26T14:26:37;11.13;;;6.00;;
3843;SDS011;1937;51.444;6.484;2024-02-26T14:29:04;6.57;;;5.20;;
3843;SDS011;1937;51.444;6.484;2024-02-26T14:31:31;6.67;;;4.83;;
3843;SDS011;1937;51.444;6.484;2024-02-26T14:33:58;6.67;;;4.50;;
3843;SDS011;1937;51.444;6.484;2024-02-26T14:36:25;8.20;;;5.60;;
3843;SDS011;1937;51.444;6.484;2024-02-26T14:38:53;9.87;;;5.30;;
3843;SDS011;1937;51.444;6.484;2024-02-26T14:41:20;7.07;;;5.57;;
3843;SDS011;1937;51.444;6.484;2024-02-26T14:43:47;5.43;;;4.90;;
3843;SDS011;1937;51.444;6.484;2024-02-26T14:46:13;6.47;;;4.90;;
3843;SDS011;1937;51.444;6.484;2024-02-26T14:48:40;7.90;;;4.40;;
3843;SDS011;1937;51.444;6.484;2024-02-26T14:51:06;7.60;;;5.20;;
3843;SDS011;1937;51.444;6.484;2024-02-26T14:53:33;8.00;;;6.00;;
3843;SDS011;1937;51.444;6.484;2024-02-26T14:56:01;10.47;;;5.80;;
3843;SDS011;1937;51.444;6.484;2024-02-26T14:58:28;10.33;;;6.57;;
3843;SDS011;1937;51.444;6.484;2024-02-26T15:00:54;11.73;;;6.43;;
3843;SDS011;1937;51.444;6.484;2024-02-26T15:03:21;10.20;;;6.50;;
3843;SDS011;1937;51.444;6.484;2024-02-26T15:05:48;13.23;;;7.60;;
3843;SDS011;1937;51.444;6.484;2024-02-26T15:08:14;17.33;;;6.93;;
3843;SDS011;1937;51.444;6.484;2024-02-26T15:10:41;13.53;;;7.50;;
3843;SDS011;1937;51.444;6.484;2024-02-26T15:13:14;13.47;;;7.57;;
3843;SDS011;1937;51.444;6.484;2024-02-26T15:15:43;9.07;;;6.30;;
3843;SDS011;1937;51.444;6.484;2024-02-26T15:18:09;12.73;;;7.60;;
3843;SDS011;1937;51.444;6.484;2024-02-26T15:20:40;14.33;;;8.10;;